Brooten, Minnesota
Current Conditions -  °F | °C
As of 9:33 PM on Monday 26 Jan 2015 (Local Time) from KGHW Reporting Station
Overcast Overcast  
Wind Chill: 21°   Ceiling: 900
Heat Index: 30°   Visibility: 10mi
Dew Point: 27°   Wind: 12mph
Humidity: 86%   Direction: 340°NNW
Pressure: 29.98"   Gusts: NA
Location:  45.5°N, 95.12°W
Report Text: KGHW 270333Z AUTO 34010KT 10SM OVC009 M01/M03 A2998 RMK AO2
Loading
Personal Weather Stations






























Interactive Weather Map New forecast layout! Learn more

10-Day Weather Forecast

Advertisements
Track Severe Weather on mobile